createdAt,value
2023-02-19T13:15:43.181Z,100140.25
2023-02-19T13:18:24.171Z,100134.63
2023-02-19T13:20:51.837Z,100145.53
2023-02-19T13:26:37.583Z,100168.41
2023-02-19T13:29:14.192Z,100181.44
2023-02-19T13:32:17.616Z,100197.28
2023-02-19T13:35:35.378Z,100203.63
2023-02-19T13:38:04.066Z,100213.84
2023-02-19T13:40:34.168Z,100217.84
2023-02-19T13:43:22.305Z,100218.56
2023-02-19T13:45:56.561Z,100217.59
2023-02-19T13:48:32.216Z,100219.47
2023-02-19T13:51:17.800Z,100229.28
2023-02-19T13:53:48.085Z,100229.75
2023-02-19T13:56:29.736Z,100224.69
2023-02-19T13:59:03.328Z,100220.16
2023-02-19T14:01:51.512Z,100229.34
2023-02-19T14:04:42.629Z,100223.47
2023-02-19T14:07:09.146Z,100215.34
2023-02-19T14:09:41.304Z,100224.69
2023-02-19T14:12:10.716Z,100228.84
2023-02-19T14:14:38.047Z,100221.78
2023-02-19T14:17:12.345Z,100232.03
2023-02-19T14:19:41.523Z,100233.66
2023-02-19T14:22:46.125Z,100240.22
2023-02-19T14:25:29.192Z,100233.53
2023-02-19T14:28:17.265Z,100245.75
2023-02-19T14:30:51.150Z,100238.66
2023-02-19T14:33:21.257Z,100238.94
2023-02-19T14:35:53.918Z,100246.75
2023-02-19T14:38:26.034Z,100251.19
2023-02-19T14:40:54.257Z,100241.28
2023-02-19T14:43:25.150Z,100244.41
2023-02-19T14:46:24.469Z,100249.69
2023-02-19T14:48:53.657Z,100250.31
2023-02-19T14:51:41.949Z,100251.19
2023-02-19T14:54:17.743Z,100252.66
2023-02-19T14:56:48.287Z,100262.50
2023-02-19T14:59:30.374Z,100265.22
2023-02-19T15:02:04.582Z,100275.81
2023-02-19T15:04:36.613Z,100276.00
2023-02-19T15:07:08.599Z,100287.00
2023-02-19T15:09:46.532Z,100283.78
2023-02-19T15:12:30.524Z,100286.59
2023-02-19T15:15:04.883Z,100285.69
2023-02-19T15:17:34.177Z,100297.53
2023-02-19T15:20:05.433Z,100297.59
2023-02-19T15:22:32.646Z,100299.25
2023-02-19T15:25:03.670Z,100298.38
2023-02-19T15:27:30.547Z,100305.59
2023-02-19T15:29:59.684Z,100307.28
2023-02-19T15:32:28.243Z,100305.47
2023-02-19T15:35:01.067Z,100309.19
2023-02-19T15:37:36.675Z,100300.41
2023-02-19T15:40:07.705Z,100296.13
2023-02-19T15:42:35.944Z,100302.25
2023-02-19T15:45:34.647Z,100299.31
2023-02-19T15:48:09.384Z,100284.38
2023-02-19T15:50:40.391Z,100271.97
2023-02-19T15:53:23.536Z,100277.72
2023-02-19T15:56:02.441Z,100274.47
2023-02-19T15:58:53.036Z,100272.81
2023-02-19T16:01:25.365Z,100268.47
2023-02-19T16:03:54.082Z,100266.59
2023-02-19T16:06:21.551Z,100269.34
2023-02-19T16:09:06.290Z,100273.56
2023-02-19T16:11:47.623Z,100276.22
2023-02-19T16:14:17.643Z,100269.16
2023-02-19T16:16:49.089Z,100265.84
2023-02-19T16:19:28.607Z,100271.06
2023-02-19T16:21:56.200Z,100277.56
2023-02-19T16:24:25.797Z,100283.66
2023-02-19T16:26:54.409Z,100281.97
2023-02-19T16:29:28.292Z,100283.56
2023-02-19T16:32:08.507Z,100282.97
2023-02-19T16:34:49.254Z,100289.13
2023-02-19T16:37:41.611Z,100298.69
2023-02-19T16:40:08.953Z,100300.78
2023-02-19T16:42:36.825Z,100299.91
2023-02-19T16:45:04.860Z,100302.41
2023-02-19T16:47:38.098Z,100318.31
2023-02-19T16:50:15.454Z,100311.19
2023-02-19T16:52:59.879Z,100313.84
2023-02-19T16:55:29.036Z,100313.66
2023-02-19T16:57:55.586Z,100316.31
2023-02-19T17:00:28.254Z,100329.53
2023-02-19T17:02:59.624Z,100332.28
2023-02-19T17:05:31.160Z,100334.88
2023-02-19T17:07:58.179Z,100340.56
2023-02-19T17:10:28.578Z,100356.44
2023-02-19T17:12:56.000Z,100371.63
2023-02-19T17:15:23.797Z,100381.47
2023-02-19T17:17:50.464Z,100381.53
2023-02-19T17:20:26.660Z,100381.44
2023-02-19T17:23:01.532Z,100384.13
2023-02-19T17:25:28.020Z,100389.66
2023-02-19T17:28:00.548Z,100391.44
2023-02-19T17:30:39.920Z,100389.91
2023-02-19T17:33:06.865Z,100401.16
2023-02-19T18:38:54.065Z,100450.72
2023-02-19T18:41:21.940Z,100438.41
2023-02-19T18:43:55.519Z,100437.53
2023-02-19T18:46:23.567Z,100438.66
2023-02-19T18:49:04.513Z,100437.16
2023-02-19T18:51:31.014Z,100431.72
2023-02-19T18:54:08.528Z,100424.91
2023-02-19T18:56:43.439Z,100433.88
2023-02-19T18:59:19.483Z,100426.88
2023-02-19T19:01:55.786Z,100433.97
2023-02-19T19:04:24.079Z,100437.47
2023-02-19T19:06:57.493Z,100435.72
2023-02-19T19:09:24.296Z,100445.53
2023-02-19T19:11:59.832Z,100437.53
2023-02-19T19:14:28.641Z,100440.91
2023-02-19T19:16:56.876Z,100439.03
2023-02-19T19:19:29.492Z,100444.00
2023-02-19T19:21:58.636Z,100447.50
2023-02-19T19:24:31.562Z,100438.66
2023-02-19T19:26:58.064Z,100443.19
2023-02-19T19:29:24.844Z,100440.72
2023-02-19T19:31:58.632Z,100441.66
2023-02-19T19:37:22.872Z,100445.38
2023-02-19T19:39:55.445Z,100447.06
2023-02-19T19:42:28.466Z,100453.31
2023-02-19T19:47:21.667Z,100456.16
2023-02-19T19:49:48.152Z,100465.94
2023-02-19T19:52:21.692Z,100468.56
2023-02-19T19:54:48.185Z,100463.22
2023-02-19T19:58:01.677Z,100462.38
2023-02-19T20:00:28.096Z,100464.16
2023-02-19T20:03:01.757Z,100464.06
2023-02-19T20:05:34.888Z,100467.66
2023-02-19T20:08:01.385Z,100472.88
2023-02-19T20:10:36.800Z,100483.47
2023-02-19T20:13:09.890Z,100487.81
2023-02-19T20:15:42.658Z,100484.22
2023-02-19T20:18:15.662Z,100477.16
2023-02-19T20:20:42.146Z,100484.06
2023-02-19T20:23:17.638Z,100479.81
2023-02-19T20:25:50.638Z,100494.81
2023-02-19T20:28:17.073Z,100486.81
2023-02-19T20:30:50.774Z,100490.31
2023-02-19T20:33:19.378Z,100495.59
2023-02-19T20:35:46.959Z,100489.41
2023-02-19T20:38:23.656Z,100490.31
2023-02-19T20:40:56.631Z,100492.16
2023-02-19T20:43:29.637Z,100489.41
2023-02-19T20:46:02.628Z,100482.47
2023-02-19T20:48:29.175Z,100492.25
2023-02-19T20:51:06.628Z,100495.81
2023-02-19T20:53:41.687Z,100498.34
2023-02-19T20:56:08.570Z,100501.97
2023-02-19T20:58:35.007Z,100513.28
2023-02-19T21:01:07.612Z,100523.88
2023-02-19T21:03:40.628Z,100531.88
2023-02-19T21:06:13.873Z,100536.38
2023-02-19T21:08:46.590Z,100538.03
2023-02-19T21:11:26.662Z,100539.03
2023-02-19T21:14:00.599Z,100539.88
2023-02-19T21:16:29.353Z,100538.19
2023-02-19T21:19:03.623Z,100552.34
2023-02-19T21:21:31.434Z,100555.00
2023-02-19T21:24:05.609Z,100561.19
2023-02-19T21:26:37.004Z,100557.56
2023-02-19T21:29:11.875Z,100562.06
2023-02-19T21:31:47.745Z,100552.56
2023-02-19T21:34:24.600Z,100558.72
2023-02-19T21:36:51.378Z,100565.81
2023-02-19T21:39:26.641Z,100557.06
2023-02-19T21:41:59.616Z,100558.84
2023-02-19T21:44:26.135Z,100565.81
2023-02-19T21:47:00.587Z,100569.56
2023-02-19T21:49:33.608Z,100573.09
2023-02-19T21:52:00.036Z,100576.59
2023-02-19T21:54:32.573Z,100585.38
2023-02-19T21:57:02.084Z,100584.69
2023-02-19T21:59:34.587Z,100589.03
2023-02-19T22:02:07.599Z,100600.59
2023-02-19T22:04:36.334Z,100594.47
2023-02-19T22:07:09.594Z,100597.16
2023-02-19T22:09:42.577Z,100589.25
2023-02-19T22:12:16.602Z,100600.72
2023-02-19T22:14:43.172Z,100607.03
2023-02-19T22:17:16.570Z,100607.03
2023-02-19T22:19:43.119Z,100600.03
2023-02-19T22:22:16.571Z,100598.25
2023-02-19T22:24:43.078Z,100597.41
2023-02-19T22:27:16.898Z,100598.38
2023-02-19T22:29:43.323Z,100592.97
2023-02-19T22:32:16.655Z,100594.88
2023-02-19T22:34:49.584Z,100596.59
2023-02-19T22:37:22.559Z,100601.09
2023-02-19T22:39:48.987Z,100599.31
2023-02-19T22:42:28.563Z,100594.06
2023-02-19T22:45:01.560Z,100597.72
2023-02-19T22:47:34.563Z,100584.56
2023-02-19T22:50:07.683Z,100583.63
2023-02-19T22:52:34.117Z,100578.34
2023-02-19T22:55:07.565Z,100590.72
2023-02-19T22:57:42.554Z,100607.44
2023-02-19T23:00:20.880Z,100603.94
2023-02-19T23:02:54.552Z,100604.06
2023-02-19T23:05:24.844Z,100590.72
2023-02-19T23:07:57.828Z,100601.34
2023-02-19T23:10:24.286Z,100607.56
2023-02-19T23:12:57.632Z,100611.97
2023-02-19T23:15:24.037Z,100609.41
2023-02-19T23:17:56.533Z,100617.38
2023-02-19T23:20:23.147Z,100619.97
2023-02-19T23:22:56.807Z,100615.69
2023-02-19T23:25:23.272Z,100606.78
2023-02-19T23:27:56.552Z,100605.09
2023-02-19T23:30:29.718Z,100605.13
2023-02-19T23:33:02.552Z,100606.03
2023-02-19T23:35:35.539Z,100599.03
2023-02-19T23:38:08.583Z,100589.34
2023-02-19T23:40:41.552Z,100582.38
2023-02-19T23:43:14.524Z,100582.38
2023-02-19T23:45:47.583Z,100580.84
2023-02-19T23:48:14.244Z,100578.34
2023-02-19T23:50:47.537Z,100579.47
2023-02-19T23:53:14.068Z,100570.81
2023-02-19T23:55:48.526Z,100568.41
2023-02-19T23:58:15.241Z,100565.88
